sensor_id;sensor_type;location;lat;lon;timestamp;temperature;humidity
27848;DHT22;15212;48.830;8.730;2024-01-10T00:00:03;-4.60;99.90
27848;DHT22;15212;48.830;8.730;2024-01-10T00:02:32;-4.60;99.90
27848;DHT22;15212;48.830;8.730;2024-01-10T00:05:00;-4.60;99.90
27848;DHT22;15212;48.830;8.730;2024-01-10T00:07:30;-4.60;99.90
27848;DHT22;15212;48.830;8.730;2024-01-10T00:09:58;-4.60;99.90
27848;DHT22;15212;48.830;8.730;2024-01-10T00:12:28;-4.60;99.90
27848;DHT22;15212;48.830;8.730;2024-01-10T00:14:58;-4.60;99.90
27848;DHT22;15212;48.830;8.730;2024-01-10T00:17:26;-4.70;99.90
27848;DHT22;15212;48.830;8.730;2024-01-10T00:19:54;-4.60;99.90
27848;DHT22;15212;48.830;8.730;2024-01-10T00:22:23;-4.60;99.90
27848;DHT22;15212;48.830;8.730;2024-01-10T00:24:52;-4.60;99.90
27848;DHT22;15212;48.830;8.730;2024-01-10T00:27:20;-4.70;99.90
27848;DHT22;15212;48.830;8.730;2024-01-10T00:29:49;-4.70;99.90
27848;DHT22;15212;48.830;8.730;2024-01-10T00:32:18;-4.70;99.90
27848;DHT22;15212;48.830;8.730;2024-01-10T00:34:46;-4.70;99.90
27848;DHT22;15212;48.830;8.730;2024-01-10T00:37:15;-4.70;99.90
27848;DHT22;15212;48.830;8.730;2024-01-10T00:39:43;-4.70;99.90
27848;DHT22;15212;48.830;8.730;2024-01-10T00:42:11;-4.70;99.90
27848;DHT22;15212;48.830;8.730;2024-01-10T00:44:40;-4.70;99.90
27848;DHT22;15212;48.830;8.730;2024-01-10T00:47:09;-4.70;99.90
27848;DHT22;15212;48.830;8.730;2024-01-10T00:49:38;-4.70;99.90
27848;DHT22;15212;48.830;8.730;2024-01-10T00:52:07;-4.70;99.90
27848;DHT22;15212;48.830;8.730;2024-01-10T00:54:35;-4.70;99.90
27848;DHT22;15212;48.830;8.730;2024-01-10T00:57:04;-4.70;99.90
27848;DHT22;15212;48.830;8.730;2024-01-10T00:59:32;-4.70;99.90
27848;DHT22;15212;48.830;8.730;2024-01-10T01:02:00;-4.70;99.90
27848;DHT22;15212;48.830;8.730;2024-01-10T01:04:29;-4.70;99.90
27848;DHT22;15212;48.830;8.730;2024-01-10T01:06:57;-4.70;99.90
27848;DHT22;15212;48.830;8.730;2024-01-10T01:09:25;-4.70;99.90
27848;DHT22;15212;48.830;8.730;2024-01-10T01:11:54;-4.70;99.90
27848;DHT22;15212;48.830;8.730;2024-01-10T01:14:22;-4.70;99.90
27848;DHT22;15212;48.830;8.730;2024-01-10T01:16:51;-4.70;99.90
27848;DHT22;15212;48.830;8.730;2024-01-10T01:19:19;-4.70;99.90
27848;DHT22;15212;48.830;8.730;2024-01-10T01:21:47;-4.60;99.90
27848;DHT22;15212;48.830;8.730;2024-01-10T01:24:16;-4.60;99.90
27848;DHT22;15212;48.830;8.730;2024-01-10T01:26:44;-4.60;99.90
27848;DHT22;15212;48.830;8.730;2024-01-10T01:29:13;-4.60;99.90
27848;DHT22;15212;48.830;8.730;2024-01-10T01:31:41;-4.60;99.90
27848;DHT22;15212;48.830;8.730;2024-01-10T01:34:09;-4.60;99.90
27848;DHT22;15212;48.830;8.730;2024-01-10T01:36:38;-4.60;99.90
27848;DHT22;15212;48.830;8.730;2024-01-10T01:39:07;-4.60;99.90
27848;DHT22;15212;48.830;8.730;2024-01-10T01:41:35;-4.60;99.90
27848;DHT22;15212;48.830;8.730;2024-01-10T01:44:03;-4.60;99.90
27848;DHT22;15212;48.830;8.730;2024-01-10T01:46:33;-4.60;99.90
27848;DHT22;15212;48.830;8.730;2024-01-10T01:49:03;-4.60;99.90
27848;DHT22;15212;48.830;8.730;2024-01-10T01:51:32;-4.60;99.90
27848;DHT22;15212;48.830;8.730;2024-01-10T01:54:06;-4.60;99.90
27848;DHT22;15212;48.830;8.730;2024-01-10T01:56:42;-4.60;99.90
27848;DHT22;15212;48.830;8.730;2024-01-10T01:59:12;-4.70;99.90
27848;DHT22;15212;48.830;8.730;2024-01-10T02:01:41;-4.70;99.90
27848;DHT22;15212;48.830;8.730;2024-01-10T02:04:10;-4.70;99.90
27848;DHT22;15212;48.830;8.730;2024-01-10T02:06:38;-4.70;99.90
27848;DHT22;15212;48.830;8.730;2024-01-10T02:09:07;-4.60;99.90
27848;DHT22;15212;48.830;8.730;2024-01-10T02:11:35;-4.60;99.90
27848;DHT22;15212;48.830;8.730;2024-01-10T02:14:04;-4.60;99.90
27848;DHT22;15212;48.830;8.730;2024-01-10T02:16:33;-4.70;99.90
27848;DHT22;15212;48.830;8.730;2024-01-10T02:19:09;-4.60;99.90
27848;DHT22;15212;48.830;8.730;2024-01-10T02:21:50;-4.60;99.90
27848;DHT22;15212;48.830;8.730;2024-01-10T02:24:19;-4.70;99.90
27848;DHT22;15212;48.830;8.730;2024-01-10T02:26:48;-4.70;99.90
27848;DHT22;15212;48.830;8.730;2024-01-10T02:29:17;-4.60;99.90
27848;DHT22;15212;48.830;8.730;2024-01-10T02:31:45;-4.60;99.90
27848;DHT22;15212;48.830;8.730;2024-01-10T02:34:14;-4.70;99.90
27848;DHT22;15212;48.830;8.730;2024-01-10T02:36:42;-4.70;99.90
27848;DHT22;15212;48.830;8.730;2024-01-10T02:39:10;-4.70;99.90
27848;DHT22;15212;48.830;8.730;2024-01-10T02:41:39;-4.70;99.90
27848;DHT22;15212;48.830;8.730;2024-01-10T02:44:07;-4.70;99.90
27848;DHT22;15212;48.830;8.730;2024-01-10T02:46:35;-4.70;99.90
27848;DHT22;15212;48.830;8.730;2024-01-10T02:49:04;-4.80;99.90
27848;DHT22;15212;48.830;8.730;2024-01-10T02:51:32;-4.80;99.90
27848;DHT22;15212;48.830;8.730;2024-01-10T02:54:01;-4.80;99.90
27848;DHT22;15212;48.830;8.730;2024-01-10T02:56:29;-4.80;99.90
27848;DHT22;15212;48.830;8.730;2024-01-10T02:58:57;-4.80;99.90
27848;DHT22;15212;48.830;8.730;2024-01-10T03:01:26;-4.80;99.90
27848;DHT22;15212;48.830;8.730;2024-01-10T03:03:54;-4.80;99.90
27848;DHT22;15212;48.830;8.730;2024-01-10T03:06:23;-4.90;99.90
27848;DHT22;15212;48.830;8.730;2024-01-10T03:08:54;-4.90;99.90
27848;DHT22;15212;48.830;8.730;2024-01-10T03:11:22;-4.90;99.90
27848;DHT22;15212;48.830;8.730;2024-01-10T03:14:00;-4.90;99.90
27848;DHT22;15212;48.830;8.730;2024-01-10T03:16:32;-4.90;99.90
27848;DHT22;15212;48.830;8.730;2024-01-10T03:19:01;-4.90;99.90
27848;DHT22;15212;48.830;8.730;2024-01-10T03:21:30;-5.00;99.90
27848;DHT22;15212;48.830;8.730;2024-01-10T03:24:00;-5.00;99.90
27848;DHT22;15212;48.830;8.730;2024-01-10T03:26:29;-5.00;99.90
27848;DHT22;15212;48.830;8.730;2024-01-10T03:28:57;-5.00;99.90
27848;DHT22;15212;48.830;8.730;2024-01-10T03:31:29;-5.00;99.90
27848;DHT22;15212;48.830;8.730;2024-01-10T03:33:58;-5.00;99.90
27848;DHT22;15212;48.830;8.730;2024-01-10T03:36:27;-5.00;99.90
27848;DHT22;15212;48.830;8.730;2024-01-10T03:38:55;-5.00;99.90
27848;DHT22;15212;48.830;8.730;2024-01-10T03:41:24;-5.00;99.90
27848;DHT22;15212;48.830;8.730;2024-01-10T03:43:52;-4.90;99.90
27848;DHT22;15212;48.830;8.730;2024-01-10T03:46:21;-4.90;99.90
27848;DHT22;15212;48.830;8.730;2024-01-10T03:48:49;-4.90;99.90
27848;DHT22;15212;48.830;8.730;2024-01-10T03:51:19;-4.90;99.90
27848;DHT22;15212;48.830;8.730;2024-01-10T03:53:48;-4.90;99.90
27848;DHT22;15212;48.830;8.730;2024-01-10T03:56:17;-4.90;99.90
27848;DHT22;15212;48.830;8.730;2024-01-10T03:58:46;-4.80;99.90
27848;DHT22;15212;48.830;8.730;2024-01-10T04:01:21;-4.80;99.90
27848;DHT22;15212;48.830;8.730;2024-01-10T04:03:50;-4.80;99.90
27848;DHT22;15212;48.830;8.730;2024-01-10T04:06:18;-4.80;99.90
27848;DHT22;15212;48.830;8.730;2024-01-10T04:08:46;-4.80;99.90
27848;DHT22;15212;48.830;8.730;2024-01-10T04:11:15;-4.90;99.90
27848;DHT22;15212;48.830;8.730;2024-01-10T04:13:43;-4.80;99.90
27848;DHT22;15212;48.830;8.730;2024-01-10T04:16:12;-4.80;99.90
27848;DHT22;15212;48.830;8.730;2024-01-10T04:18:40;-4.80;99.90
27848;DHT22;15212;48.830;8.730;2024-01-10T04:21:08;-4.80;99.90
27848;DHT22;15212;48.830;8.730;2024-01-10T04:23:37;-4.80;99.90
27848;DHT22;15212;48.830;8.730;2024-01-10T04:26:05;-4.80;99.90
27848;DHT22;15212;48.830;8.730;2024-01-10T04:28:34;-4.80;99.90
27848;DHT22;15212;48.830;8.730;2024-01-10T04:31:04;-4.80;99.90
27848;DHT22;15212;48.830;8.730;2024-01-10T04:33:32;-4.80;99.90
27848;DHT22;15212;48.830;8.730;2024-01-10T04:36:01;-4.80;99.90
27848;DHT22;15212;48.830;8.730;2024-01-10T04:38:29;-4.80;99.90
27848;DHT22;15212;48.830;8.730;2024-01-10T04:40:58;-4.80;99.90
27848;DHT22;15212;48.830;8.730;2024-01-10T04:43:26;-4.80;99.90
27848;DHT22;15212;48.830;8.730;2024-01-10T04:45:55;-4.80;99.90
27848;DHT22;15212;48.830;8.730;2024-01-10T04:48:23;-4.80;99.90
27848;DHT22;15212;48.830;8.730;2024-01-10T04:50:51;-4.90;99.90
27848;DHT22;15212;48.830;8.730;2024-01-10T04:53:20;-4.90;99.90
27848;DHT22;15212;48.830;8.730;2024-01-10T04:55:49;-4.90;99.90
27848;DHT22;15212;48.830;8.730;2024-01-10T04:58:17;-4.90;99.90
27848;DHT22;15212;48.830;8.730;2024-01-10T05:00:46;-4.90;99.90
27848;DHT22;15212;48.830;8.730;2024-01-10T05:03:14;-4.90;99.90
27848;DHT22;15212;48.830;8.730;2024-01-10T05:05:42;-4.90;99.90
27848;DHT22;15212;48.830;8.730;2024-01-10T05:08:11;-4.90;99.90
27848;DHT22;15212;48.830;8.730;2024-01-10T05:10:39;-4.90;99.90
27848;DHT22;15212;48.830;8.730;2024-01-10T05:13:08;-4.90;99.90
27848;DHT22;15212;48.830;8.730;2024-01-10T05:15:36;-4.90;99.90
27848;DHT22;15212;48.830;8.730;2024-01-10T05:18:05;-4.90;99.90
27848;DHT22;15212;48.830;8.730;2024-01-10T05:20:33;-5.00;99.90
27848;DHT22;15212;48.830;8.730;2024-01-10T05:23:02;-5.00;99.90
27848;DHT22;15212;48.830;8.730;2024-01-10T05:25:30;-5.00;99.90
27848;DHT22;15212;48.830;8.730;2024-01-10T05:27:59;-5.00;99.90
27848;DHT22;15212;48.830;8.730;2024-01-10T05:30:27;-5.10;99.90
27848;DHT22;15212;48.830;8.730;2024-01-10T05:32:55;-5.10;99.90
27848;DHT22;15212;48.830;8.730;2024-01-10T05:35:25;-5.10;99.90
27848;DHT22;15212;48.830;8.730;2024-01-10T05:37:53;-5.10;99.90
27848;DHT22;15212;48.830;8.730;2024-01-10T05:40:21;-5.10;99.90
27848;DHT22;15212;48.830;8.730;2024-01-10T05:42:50;-5.20;99.90
27848;DHT22;15212;48.830;8.730;2024-01-10T05:45:18;-5.20;99.90
27848;DHT22;15212;48.830;8.730;2024-01-10T05:47:47;-5.20;99.90
27848;DHT22;15212;48.830;8.730;2024-01-10T05:50:15;-5.20;99.90
27848;DHT22;15212;48.830;8.730;2024-01-10T05:52:44;-5.20;99.90
27848;DHT22;15212;48.830;8.730;2024-01-10T05:55:12;-5.30;99.90
27848;DHT22;15212;48.830;8.730;2024-01-10T05:57:41;-5.30;99.90
27848;DHT22;15212;48.830;8.730;2024-01-10T06:00:10;-5.40;99.90
27848;DHT22;15212;48.830;8.730;2024-01-10T06:02:39;-5.30;99.90
27848;DHT22;15212;48.830;8.730;2024-01-10T06:05:09;-5.40;99.90
27848;DHT22;15212;48.830;8.730;2024-01-10T06:07:38;-5.40;99.90
27848;DHT22;15212;48.830;8.730;2024-01-10T06:10:10;-5.40;99.90
27848;DHT22;15212;48.830;8.730;2024-01-10T06:12:38;-5.40;99.90
27848;DHT22;15212;48.830;8.730;2024-01-10T06:15:07;-5.40;99.90
27848;DHT22;15212;48.830;8.730;2024-01-10T06:17:36;-5.40;99.90
27848;DHT22;15212;48.830;8.730;2024-01-10T06:20:05;-5.40;99.90
27848;DHT22;15212;48.830;8.730;2024-01-10T06:22:34;-5.40;99.90
27848;DHT22;15212;48.830;8.730;2024-01-10T06:25:03;-5.50;99.90
27848;DHT22;15212;48.830;8.730;2024-01-10T06:27:31;-5.50;99.90
27848;DHT22;15212;48.830;8.730;2024-01-10T06:30:00;-5.50;99.90
27848;DHT22;15212;48.830;8.730;2024-01-10T06:32:29;-5.60;99.90
27848;DHT22;15212;48.830;8.730;2024-01-10T06:34:57;-5.60;99.90
27848;DHT22;15212;48.830;8.730;2024-01-10T06:37:28;-5.60;99.90
27848;DHT22;15212;48.830;8.730;2024-01-10T06:39:56;-5.60;99.90
27848;DHT22;15212;48.830;8.730;2024-01-10T06:42:25;-5.70;99.90
27848;DHT22;15212;48.830;8.730;2024-01-10T06:44:54;-5.60;99.90
27848;DHT22;15212;48.830;8.730;2024-01-10T06:47:22;-5.60;99.90
27848;DHT22;15212;48.830;8.730;2024-01-10T06:49:51;-5.60;99.90
27848;DHT22;15212;48.830;8.730;2024-01-10T06:52:19;-5.60;99.90
27848;DHT22;15212;48.830;8.730;2024-01-10T06:54:47;-5.70;99.90
27848;DHT22;15212;48.830;8.730;2024-01-10T06:57:16;-5.60;99.90
27848;DHT22;15212;48.830;8.730;2024-01-10T06:59:44;-5.70;99.90
27848;DHT22;15212;48.830;8.730;2024-01-10T07:02:13;-5.70;99.90
27848;DHT22;15212;48.830;8.730;2024-01-10T07:04:41;-5.70;99.90
27848;DHT22;15212;48.830;8.730;2024-01-10T07:07:10;-5.80;99.90
27848;DHT22;15212;48.830;8.730;2024-01-10T07:09:38;-5.80;99.90
27848;DHT22;15212;48.830;8.730;2024-01-10T07:12:09;-5.80;99.90
27848;DHT22;15212;48.830;8.730;2024-01-10T07:14:37;-5.80;99.90
27848;DHT22;15212;48.830;8.730;2024-01-10T07:17:06;-5.80;99.90
27848;DHT22;15212;48.830;8.730;2024-01-10T07:19:35;-5.80;99.90
27848;DHT22;15212;48.830;8.730;2024-01-10T07:22:03;-5.80;99.90
27848;DHT22;15212;48.830;8.730;2024-01-10T07:24:32;-5.90;99.90
27848;DHT22;15212;48.830;8.730;2024-01-10T07:27:01;-5.80;99.90
27848;DHT22;15212;48.830;8.730;2024-01-10T07:29:29;-5.80;99.90
27848;DHT22;15212;48.830;8.730;2024-01-10T07:31:57;-5.80;99.90
27848;DHT22;15212;48.830;8.730;2024-01-10T07:34:26;-5.80;99.90
27848;DHT22;15212;48.830;8.730;2024-01-10T07:36:54;-5.80;99.90
27848;DHT22;15212;48.830;8.730;2024-01-10T07:39:23;-5.70;99.90
27848;DHT22;15212;48.830;8.730;2024-01-10T07:41:51;-5.70;99.90
27848;DHT22;15212;48.830;8.730;2024-01-10T07:44:20;-5.70;99.90
27848;DHT22;15212;48.830;8.730;2024-01-10T07:46:48;-5.70;99.90
27848;DHT22;15212;48.830;8.730;2024-01-10T07:49:18;-5.70;99.90
27848;DHT22;15212;48.830;8.730;2024-01-10T07:51:48;-5.70;99.90
27848;DHT22;15212;48.830;8.730;2024-01-10T07:54:16;-5.70;99.90
27848;DHT22;15212;48.830;8.730;2024-01-10T07:56:45;-5.70;99.90
27848;DHT22;15212;48.830;8.730;2024-01-10T07:59:13;-5.60;99.90
27848;DHT22;15212;48.830;8.730;2024-01-10T08:01:43;-5.60;99.90
27848;DHT22;15212;48.830;8.730;2024-01-10T08:04:14;-5.50;99.90
27848;DHT22;15212;48.830;8.730;2024-01-10T08:06:42;-5.40;99.90
27848;DHT22;15212;48.830;8.730;2024-01-10T08:09:10;-5.30;99.90
27848;DHT22;15212;48.830;8.730;2024-01-10T08:11:41;-5.20;99.90
27848;DHT22;15212;48.830;8.730;2024-01-10T08:14:09;-5.10;99.90
27848;DHT22;15212;48.830;8.730;2024-01-10T08:16:40;-5.00;99.90
27848;DHT22;15212;48.830;8.730;2024-01-10T08:19:09;-4.80;99.90
27848;DHT22;15212;48.830;8.730;2024-01-10T08:21:37;-4.70;99.90
27848;DHT22;15212;48.830;8.730;2024-01-10T08:24:06;-4.70;99.90
27848;DHT22;15212;48.830;8.730;2024-01-10T08:26:35;-4.60;99.90
27848;DHT22;15212;48.830;8.730;2024-01-10T08:29:04;-4.50;99.90
27848;DHT22;15212;48.830;8.730;2024-01-10T08:31:33;-4.40;99.90
27848;DHT22;15212;48.830;8.730;2024-01-10T08:34:01;-4.30;99.90
27848;DHT22;15212;48.830;8.730;2024-01-10T08:36:30;-4.20;99.90
27848;DHT22;15212;48.830;8.730;2024-01-10T08:38:58;-4.20;99.90
27848;DHT22;15212;48.830;8.730;2024-01-10T08:41:27;-4.10;99.90
27848;DHT22;15212;48.830;8.730;2024-01-10T08:43:55;-3.90;99.90
27848;DHT22;15212;48.830;8.730;2024-01-10T08:46:24;-3.80;99.90
27848;DHT22;15212;48.830;8.730;2024-01-10T08:48:52;-3.70;99.90
27848;DHT22;15212;48.830;8.730;2024-01-10T08:51:20;-3.60;99.90
27848;DHT22;15212;48.830;8.730;2024-01-10T08:53:49;-3.50;99.90
27848;DHT22;15212;48.830;8.730;2024-01-10T08:56:17;-3.40;99.90
27848;DHT22;15212;48.830;8.730;2024-01-10T08:58:46;-3.40;99.90
27848;DHT22;15212;48.830;8.730;2024-01-10T09:01:14;-3.30;99.90
27848;DHT22;15212;48.830;8.730;2024-01-10T09:03:43;-3.30;99.90
27848;DHT22;15212;48.830;8.730;2024-01-10T09:06:11;-3.20;99.90
27848;DHT22;15212;48.830;8.730;2024-01-10T09:08:40;-3.10;99.90
27848;DHT22;15212;48.830;8.730;2024-01-10T09:11:08;-3.20;99.90
27848;DHT22;15212;48.830;8.730;2024-01-10T09:13:37;-3.20;99.90
27848;DHT22;15212;48.830;8.730;2024-01-10T09:16:07;-3.10;99.90
27848;DHT22;15212;48.830;8.730;2024-01-10T09:18:36;-3.00;99.90
27848;DHT22;15212;48.830;8.730;2024-01-10T09:21:06;-3.00;99.90
27848;DHT22;15212;48.830;8.730;2024-01-10T09:23:34;-3.10;99.90
27848;DHT22;15212;48.830;8.730;2024-01-10T09:26:03;-3.00;99.90
27848;DHT22;15212;48.830;8.730;2024-01-10T09:28:32;-3.00;99.90
27848;DHT22;15212;48.830;8.730;2024-01-10T09:31:00;-2.90;99.90
27848;DHT22;15212;48.830;8.730;2024-01-10T09:33:28;-2.90;99.90
27848;DHT22;15212;48.830;8.730;2024-01-10T09:35:57;-2.90;99.90
27848;DHT22;15212;48.830;8.730;2024-01-10T09:38:25;-2.80;99.90
27848;DHT22;15212;48.830;8.730;2024-01-10T09:40:57;-2.80;99.90
27848;DHT22;15212;48.830;8.730;2024-01-10T09:43:33;-2.90;99.90
27848;DHT22;15212;48.830;8.730;2024-01-10T09:46:01;-2.90;99.90
27848;DHT22;15212;48.830;8.730;2024-01-10T09:48:30;-2.80;99.90
27848;DHT22;15212;48.830;8.730;2024-01-10T09:50:59;-2.70;99.90
27848;DHT22;15212;48.830;8.730;2024-01-10T09:53:28;-2.60;99.90
27848;DHT22;15212;48.830;8.730;2024-01-10T09:55:58;-2.60;99.90
27848;DHT22;15212;48.830;8.730;2024-01-10T09:58:27;-2.50;99.90
27848;DHT22;15212;48.830;8.730;2024-01-10T10:00:56;-2.40;99.90
27848;DHT22;15212;48.830;8.730;2024-01-10T10:03:24;-2.30;99.90
27848;DHT22;15212;48.830;8.730;2024-01-10T10:05:53;-2.20;99.90
27848;DHT22;15212;48.830;8.730;2024-01-10T10:08:21;-2.00;99.90
27848;DHT22;15212;48.830;8.730;2024-01-10T10:10:50;-1.90;99.90
27848;DHT22;15212;48.830;8.730;2024-01-10T10:13:28;-1.90;99.90
27848;DHT22;15212;48.830;8.730;2024-01-10T10:16:04;-1.80;99.90
27848;DHT22;15212;48.830;8.730;2024-01-10T10:18:33;-1.60;99.90
27848;DHT22;15212;48.830;8.730;2024-01-10T10:21:12;-1.60;99.90
27848;DHT22;15212;48.830;8.730;2024-01-10T10:23:43;-1.60;99.90
27848;DHT22;15212;48.830;8.730;2024-01-10T10:26:16;-1.40;99.90
27848;DHT22;15212;48.830;8.730;2024-01-10T10:28:51;-1.40;99.90
27848;DHT22;15212;48.830;8.730;2024-01-10T10:31:20;-1.40;99.90
27848;DHT22;15212;48.830;8.730;2024-01-10T10:33:49;-1.30;99.90
27848;DHT22;15212;48.830;8.730;2024-01-10T10:36:19;-1.10;99.90
27848;DHT22;15212;48.830;8.730;2024-01-10T10:38:48;-1.00;99.90
27848;DHT22;15212;48.830;8.730;2024-01-10T10:41:18;-0.90;99.90
27848;DHT22;15212;48.830;8.730;2024-01-10T10:43:49;-1.00;99.90
27848;DHT22;15212;48.830;8.730;2024-01-10T10:46:19;-0.90;99.90
27848;DHT22;15212;48.830;8.730;2024-01-10T10:48:48;-0.90;99.90
27848;DHT22;15212;48.830;8.730;2024-01-10T10:51:27;-0.80;99.90
27848;DHT22;15212;48.830;8.730;2024-01-10T10:54:01;-0.70;99.90
27848;DHT22;15212;48.830;8.730;2024-01-10T10:56:32;-0.70;99.90
27848;DHT22;15212;48.830;8.730;2024-01-10T10:59:05;-0.70;99.90
27848;DHT22;15212;48.830;8.730;2024-01-10T11:01:40;-0.70;99.90
27848;DHT22;15212;48.830;8.730;2024-01-10T11:04:10;-0.70;99.90
27848;DHT22;15212;48.830;8.730;2024-01-10T11:06:40;-0.70;99.90
27848;DHT22;15212;48.830;8.730;2024-01-10T11:09:10;-0.60;99.90
27848;DHT22;15212;48.830;8.730;2024-01-10T11:17:57;-0.30;99.90
27848;DHT22;15212;48.830;8.730;2024-01-10T11:23:42;-0.10;99.90
27848;DHT22;15212;48.830;8.730;2024-01-10T11:26:15;-0.10;99.90
27848;DHT22;15212;48.830;8.730;2024-01-10T11:28:45;-0.10;99.90
27848;DHT22;15212;48.830;8.730;2024-01-10T11:31:15;0.00;99.90
27848;DHT22;15212;48.830;8.730;2024-01-10T11:33:45;-0.10;99.90
27848;DHT22;15212;48.830;8.730;2024-01-10T11:36:19;-0.20;99.90
27848;DHT22;15212;48.830;8.730;2024-01-10T11:38:54;-0.20;99.90
27848;DHT22;15212;48.830;8.730;2024-01-10T11:41:43;-0.10;99.90
27848;DHT22;15212;48.830;8.730;2024-01-10T11:46:52;0.00;99.90
27848;DHT22;15212;48.830;8.730;2024-01-10T11:49:23;0.10;99.90
27848;DHT22;15212;48.830;8.730;2024-01-10T11:51:57;0.20;99.90
27848;DHT22;15212;48.830;8.730;2024-01-10T11:54:40;0.20;99.90
27848;DHT22;15212;48.830;8.730;2024-01-10T11:57:28;0.30;99.90
27848;DHT22;15212;48.830;8.730;2024-01-10T11:59:59;0.30;99.90
27848;DHT22;15212;48.830;8.730;2024-01-10T12:02:29;0.30;99.90
27848;DHT22;15212;48.830;8.730;2024-01-10T12:04:59;0.40;99.90
27848;DHT22;15212;48.830;8.730;2024-01-10T12:07:28;0.40;99.90
27848;DHT22;15212;48.830;8.730;2024-01-10T12:09:56;0.40;99.90
27848;DHT22;15212;48.830;8.730;2024-01-10T12:12:24;0.50;99.90
27848;DHT22;15212;48.830;8.730;2024-01-10T12:14:53;0.50;99.90
27848;DHT22;15212;48.830;8.730;2024-01-10T12:17:22;0.50;99.90
27848;DHT22;15212;48.830;8.730;2024-01-10T12:19:53;0.50;99.90
27848;DHT22;15212;48.830;8.730;2024-01-10T12:22:22;0.50;99.90
27848;DHT22;15212;48.830;8.730;2024-01-10T12:24:50;0.50;99.90
27848;DHT22;15212;48.830;8.730;2024-01-10T12:27:19;0.50;99.90
27848;DHT22;15212;48.830;8.730;2024-01-10T12:29:49;0.50;99.90
27848;DHT22;15212;48.830;8.730;2024-01-10T12:32:21;0.40;99.90
27848;DHT22;15212;48.830;8.730;2024-01-10T12:34:57;0.40;99.90
27848;DHT22;15212;48.830;8.730;2024-01-10T12:37:27;0.40;99.90
27848;DHT22;15212;48.830;8.730;2024-01-10T12:39:56;0.40;99.90
27848;DHT22;15212;48.830;8.730;2024-01-10T12:42:25;0.40;99.90
27848;DHT22;15212;48.830;8.730;2024-01-10T12:44:53;0.30;99.90
27848;DHT22;15212;48.830;8.730;2024-01-10T12:47:22;0.30;99.90
27848;DHT22;15212;48.830;8.730;2024-01-10T12:49:52;0.30;99.90
27848;DHT22;15212;48.830;8.730;2024-01-10T12:52:20;0.30;99.90
27848;DHT22;15212;48.830;8.730;2024-01-10T12:54:51;0.30;99.90
27848;DHT22;15212;48.830;8.730;2024-01-10T12:57:20;0.30;99.90
27848;DHT22;15212;48.830;8.730;2024-01-10T12:59:50;0.30;99.90
27848;DHT22;15212;48.830;8.730;2024-01-10T13:02:18;0.30;99.90
27848;DHT22;15212;48.830;8.730;2024-01-10T13:04:47;0.30;99.90
27848;DHT22;15212;48.830;8.730;2024-01-10T13:07:16;0.30;99.90
27848;DHT22;15212;48.830;8.730;2024-01-10T13:09:44;0.30;99.90
27848;DHT22;15212;48.830;8.730;2024-01-10T13:12:13;0.30;99.90
27848;DHT22;15212;48.830;8.730;2024-01-10T13:14:41;0.30;99.90
27848;DHT22;15212;48.830;8.730;2024-01-10T13:17:09;0.30;99.90
27848;DHT22;15212;48.830;8.730;2024-01-10T13:19:38;0.30;99.90
27848;DHT22;15212;48.830;8.730;2024-01-10T13:22:06;0.30;99.90
27848;DHT22;15212;48.830;8.730;2024-01-10T13:24:35;0.30;99.90
27848;DHT22;15212;48.830;8.730;2024-01-10T13:27:03;0.30;99.90
27848;DHT22;15212;48.830;8.730;2024-01-10T13:29:32;0.30;99.90
27848;DHT22;15212;48.830;8.730;2024-01-10T13:32:01;0.30;99.90
27848;DHT22;15212;48.830;8.730;2024-01-10T13:34:31;0.30;99.90
27848;DHT22;15212;48.830;8.730;2024-01-10T13:37:00;0.30;99.90
27848;DHT22;15212;48.830;8.730;2024-01-10T13:39:28;0.20;99.90
27848;DHT22;15212;48.830;8.730;2024-01-10T13:41:57;0.30;99.90
27848;DHT22;15212;48.830;8.730;2024-01-10T13:44:25;0.30;99.90
27848;DHT22;15212;48.830;8.730;2024-01-10T13:46:54;0.30;99.90
27848;DHT22;15212;48.830;8.730;2024-01-10T13:49:23;0.30;99.90
27848;DHT22;15212;48.830;8.730;2024-01-10T13:51:51;0.30;99.90
27848;DHT22;15212;48.830;8.730;2024-01-10T13:54:19;0.20;99.90
27848;DHT22;15212;48.830;8.730;2024-01-10T13:56:48;0.20;99.90
27848;DHT22;15212;48.830;8.730;2024-01-10T13:59:16;0.20;99.90
27848;DHT22;15212;48.830;8.730;2024-01-10T14:01:45;0.20;99.90
27848;DHT22;15212;48.830;8.730;2024-01-10T14:04:13;0.30;99.90
27848;DHT22;15212;48.830;8.730;2024-01-10T14:06:42;0.20;99.90
27848;DHT22;15212;48.830;8.730;2024-01-10T14:09:10;0.20;99.90
27848;DHT22;15212;48.830;8.730;2024-01-10T14:11:39;0.20;99.90
27848;DHT22;15212;48.830;8.730;2024-01-10T14:14:07;0.30;99.90
27848;DHT22;15212;48.830;8.730;2024-01-10T14:16:36;0.20;99.90
27848;DHT22;15212;48.830;8.730;2024-01-10T14:19:04;0.20;99.90
27848;DHT22;15212;48.830;8.730;2024-01-10T14:21:32;0.30;99.90
27848;DHT22;15212;48.830;8.730;2024-01-10T14:24:01;0.30;99.90
27848;DHT22;15212;48.830;8.730;2024-01-10T14:26:29;0.30;99.90
27848;DHT22;15212;48.830;8.730;2024-01-10T14:28:58;0.30;99.90
27848;DHT22;15212;48.830;8.730;2024-01-10T14:31:26;0.30;99.90
27848;DHT22;15212;48.830;8.730;2024-01-10T14:33:55;0.20;99.90
27848;DHT22;15212;48.830;8.730;2024-01-10T14:36:23;0.20;99.90
27848;DHT22;15212;48.830;8.730;2024-01-10T14:38:52;0.20;99.90
27848;DHT22;15212;48.830;8.730;2024-01-10T14:41:21;0.30;99.90
27848;DHT22;15212;48.830;8.730;2024-01-10T14:43:50;0.20;99.90
27848;DHT22;15212;48.830;8.730;2024-01-10T14:46:18;0.20;99.90
27848;DHT22;15212;48.830;8.730;2024-01-10T14:48:47;0.20;99.90
27848;DHT22;15212;48.830;8.730;2024-01-10T14:51:15;0.10;99.90
27848;DHT22;15212;48.830;8.730;2024-01-10T14:53:43;0.10;99.90
27848;DHT22;15212;48.830;8.730;2024-01-10T14:56:12;0.10;99.90
27848;DHT22;15212;48.830;8.730;2024-01-10T14:58:40;0.10;99.90
27848;DHT22;15212;48.830;8.730;2024-01-10T15:01:12;0.00;99.90
27848;DHT22;15212;48.830;8.730;2024-01-10T15:03:40;0.00;99.90
27848;DHT22;15212;48.830;8.730;2024-01-10T15:06:09;-0.10;99.90
27848;DHT22;15212;48.830;8.730;2024-01-10T15:08:42;-0.10;99.90
27848;DHT22;15212;48.830;8.730;2024-01-10T15:11:10;-0.10;99.90
27848;DHT22;15212;48.830;8.730;2024-01-10T15:13:42;-0.10;99.90
27848;DHT22;15212;48.830;8.730;2024-01-10T15:16:12;-0.20;99.90
27848;DHT22;15212;48.830;8.730;2024-01-10T15:18:40;-0.30;99.90
27848;DHT22;15212;48.830;8.730;2024-01-10T15:21:09;-0.40;99.90
27848;DHT22;15212;48.830;8.730;2024-01-10T15:23:37;-0.40;99.90
27848;DHT22;15212;48.830;8.730;2024-01-10T15:26:05;-0.50;99.90
27848;DHT22;15212;48.830;8.730;2024-01-10T15:28:34;-0.50;99.90
27848;DHT22;15212;48.830;8.730;2024-01-10T15:31:02;-0.60;99.90
27848;DHT22;15212;48.830;8.730;2024-01-10T15:33:30;-0.70;99.90
27848;DHT22;15212;48.830;8.730;2024-01-10T15:35:59;-0.70;99.90
27848;DHT22;15212;48.830;8.730;2024-01-10T15:38:28;-0.80;99.90
27848;DHT22;15212;48.830;8.730;2024-01-10T15:40:56;-0.90;99.90
27848;DHT22;15212;48.830;8.730;2024-01-10T15:43:26;-0.90;99.90
27848;DHT22;15212;48.830;8.730;2024-01-10T15:45:54;-1.00;99.90
27848;DHT22;15212;48.830;8.730;2024-01-10T15:48:23;-1.00;99.90
27848;DHT22;15212;48.830;8.730;2024-01-10T15:51:00;-1.10;99.90
27848;DHT22;15212;48.830;8.730;2024-01-10T15:53:25;-1.10;99.90
27848;DHT22;15212;48.830;8.730;2024-01-10T15:55:54;-1.10;99.90
27848;DHT22;15212;48.830;8.730;2024-01-10T15:58:24;-1.20;99.90